createdAt,value
2019-06-10T00:00:16.246Z,975.81
2019-06-10T00:01:12.915Z,975.79
2019-06-10T00:02:12.907Z,975.80
2019-06-10T00:03:12.926Z,975.77
2019-06-10T00:04:12.919Z,975.76
2019-06-10T00:05:12.910Z,975.75
2019-06-10T00:06:12.907Z,975.74
2019-06-10T00:07:12.905Z,975.70
2019-06-10T00:08:12.936Z,975.69
2019-06-10T00:09:12.916Z,975.68
2019-06-10T00:10:12.913Z,975.64
2019-06-10T00:11:12.905Z,975.59
2019-06-10T00:12:12.952Z,975.59
2019-06-10T00:13:12.934Z,975.57
2019-06-10T00:14:12.917Z,975.59
2019-06-10T00:15:12.913Z,975.60
2019-06-10T00:16:12.914Z,975.63
2019-06-10T00:17:12.943Z,975.63
2019-06-10T00:18:34.002Z,975.64
2019-06-10T00:19:12.959Z,975.63
2019-06-10T00:20:12.913Z,975.64
2019-06-10T00:21:12.922Z,975.68
2019-06-10T00:22:12.949Z,975.63
2019-06-10T00:23:12.919Z,975.64
2019-06-10T00:24:12.918Z,975.61
2019-06-10T00:25:12.945Z,975.61
2019-06-10T00:26:12.923Z,975.56
2019-06-10T00:27:12.927Z,975.54
2019-06-10T00:28:12.949Z,975.54
2019-06-10T00:29:12.922Z,975.50
2019-06-10T00:30:12.920Z,975.48
2019-06-10T00:31:12.927Z,975.45
2019-06-10T00:32:13.435Z,975.41
2019-06-10T00:33:12.950Z,975.37
2019-06-10T00:34:12.928Z,975.42
2019-06-10T00:35:13.750Z,975.32
2019-06-10T00:36:13.753Z,975.29
2019-06-10T00:37:14.743Z,975.33
2019-06-10T00:38:14.304Z,975.30
2019-06-10T00:39:13.666Z,975.30
2019-06-10T00:40:14.282Z,975.31
2019-06-10T00:41:14.154Z,975.30
2019-06-10T00:42:15.084Z,975.30
2019-06-10T00:43:13.655Z,975.36
2019-06-10T00:44:12.994Z,975.34
2019-06-10T00:45:17.827Z,975.31
2019-06-10T00:46:13.388Z,975.29
2019-06-10T00:47:15.068Z,975.32
2019-06-10T00:48:23.064Z,975.30
2019-06-10T00:49:14.780Z,975.34
2019-06-10T00:50:14.750Z,975.28
2019-06-10T00:51:13.309Z,975.26
2019-06-10T00:52:14.001Z,975.29
2019-06-10T00:53:14.503Z,975.33
2019-06-10T00:54:15.438Z,975.34
2019-06-10T00:55:13.915Z,975.34
2019-06-10T00:56:14.410Z,975.32
2019-06-10T00:57:13.781Z,975.33
2019-06-10T00:58:14.121Z,975.30
2019-06-10T00:59:15.152Z,975.31
2019-06-10T01:00:24.914Z,975.29
2019-06-10T01:01:14.589Z,975.31
2019-06-10T01:02:14.501Z,975.33
2019-06-10T01:03:15.087Z,975.34
2019-06-10T01:04:16.241Z,975.29
2019-06-10T01:05:15.289Z,975.31
2019-06-10T01:06:15.082Z,975.27
2019-06-10T01:07:14.718Z,975.26
2019-06-10T01:08:15.582Z,975.18
2019-06-10T01:09:14.777Z,975.14
2019-06-10T01:10:14.480Z,975.15
2019-06-10T01:11:21.365Z,975.15
2019-06-10T01:12:14.760Z,975.15
2019-06-10T01:13:15.326Z,975.09
2019-06-10T01:14:15.316Z,975.07
2019-06-10T01:15:15.184Z,975.04
2019-06-10T01:16:15.407Z,975.00
2019-06-10T01:17:15.247Z,974.98
2019-06-10T01:18:33.611Z,974.96
2019-06-10T01:19:15.652Z,974.91
2019-06-10T01:20:14.780Z,974.88
2019-06-10T01:21:14.237Z,974.86
2019-06-10T01:22:14.201Z,974.89
2019-06-10T01:23:15.569Z,974.86
2019-06-10T01:24:14.715Z,974.89
2019-06-10T01:25:14.792Z,974.86
2019-06-10T01:26:16.295Z,974.82
2019-06-10T01:27:14.983Z,974.84
2019-06-10T01:28:16.717Z,974.81
2019-06-10T01:29:14.323Z,974.83
2019-06-10T01:30:20.573Z,974.82
2019-06-10T01:31:17.513Z,974.81
2019-06-10T01:32:14.893Z,974.84
2019-06-10T01:33:14.795Z,974.78
2019-06-10T01:34:13.942Z,974.77
2019-06-10T01:35:14.540Z,974.77
2019-06-10T01:36:16.391Z,974.73
2019-06-10T01:37:14.318Z,974.68
2019-06-10T01:38:15.869Z,974.68
2019-06-10T01:39:14.737Z,974.62
2019-06-10T01:40:15.975Z,974.60
2019-06-10T01:41:14.177Z,974.60
2019-06-10T01:42:14.405Z,974.62
2019-06-10T01:43:15.569Z,974.60
2019-06-10T01:44:14.720Z,974.60
2019-06-10T01:45:14.384Z,974.64
2019-06-10T01:46:14.410Z,974.71
2019-06-10T01:47:14.311Z,974.69
2019-06-10T01:48:14.904Z,974.70
2019-06-10T01:49:14.535Z,974.75
2019-06-10T01:50:15.955Z,974.82
2019-06-10T01:51:14.327Z,974.83
2019-06-10T01:52:14.824Z,974.82
2019-06-10T01:53:15.647Z,974.82
2019-06-10T01:54:15.126Z,974.78
2019-06-10T01:55:14.123Z,974.74
2019-06-10T01:56:15.427Z,974.71
2019-06-10T01:57:14.188Z,974.66
2019-06-10T01:58:16.076Z,974.66
2019-06-10T01:59:15.177Z,974.63
2019-06-10T02:00:19.110Z,974.59
2019-06-10T02:01:15.643Z,974.53
2019-06-10T02:02:15.766Z,974.52
2019-06-10T02:03:16.283Z,974.49
2019-06-10T02:04:14.956Z,974.42
2019-06-10T02:05:14.941Z,974.39
2019-06-10T02:06:17.691Z,974.35
2019-06-10T02:07:15.568Z,974.37
2019-06-10T02:08:14.594Z,974.36
2019-06-10T02:09:15.062Z,974.33
2019-06-10T02:10:16.807Z,974.24
2019-06-10T02:11:15.488Z,974.22
2019-06-10T02:12:17.206Z,974.17
2019-06-10T02:13:14.790Z,974.16
2019-06-10T02:14:16.327Z,974.12
2019-06-10T02:15:15.228Z,974.13
2019-06-10T02:16:15.691Z,974.12
2019-06-10T02:17:15.917Z,974.09
2019-06-10T02:18:14.890Z,974.11
2019-06-10T02:19:15.503Z,974.14
2019-06-10T02:20:16.475Z,974.10
2019-06-10T02:21:15.005Z,974.09
2019-06-10T02:22:15.470Z,974.08
2019-06-10T02:23:14.427Z,974.08
2019-06-10T02:24:14.476Z,974.07
2019-06-10T02:25:13.989Z,974.08
2019-06-10T02:26:14.892Z,974.09
2019-06-10T02:27:14.475Z,974.07
2019-06-10T02:28:14.567Z,974.05
2019-06-10T02:29:14.422Z,974.05
2019-06-10T02:30:18.989Z,974.01
2019-06-10T02:31:17.256Z,973.98
2019-06-10T02:32:17.946Z,973.97
2019-06-10T02:33:17.419Z,973.99
2019-06-10T02:34:17.631Z,973.96
2019-06-10T02:35:18.024Z,973.98
2019-06-10T02:36:16.022Z,973.95
2019-06-10T02:37:17.011Z,974.00
2019-06-10T02:38:17.540Z,973.98
2019-06-10T02:39:17.265Z,973.97
2019-06-10T02:40:16.645Z,973.97
2019-06-10T02:41:17.415Z,973.93
2019-06-10T02:42:16.764Z,973.91
2019-06-10T02:43:17.525Z,973.89
2019-06-10T02:44:17.262Z,973.88
2019-06-10T02:45:17.329Z,973.84
2019-06-10T02:46:15.447Z,973.85
2019-06-10T02:47:16.058Z,973.86
2019-06-10T02:48:15.555Z,973.81
2019-06-10T02:49:29.677Z,973.86
2019-06-10T02:50:14.996Z,973.83
2019-06-10T02:51:15.107Z,973.87
2019-06-10T02:52:13.927Z,973.89
2019-06-10T02:53:15.271Z,973.89
2019-06-10T02:54:16.103Z,973.86
2019-06-10T02:55:15.610Z,973.88
2019-06-10T02:56:14.713Z,973.94
2019-06-10T02:57:14.591Z,973.94
2019-06-10T02:58:13.748Z,973.96
2019-06-10T02:59:13.363Z,974.01
2019-06-10T03:00:20.774Z,974.01
2019-06-10T03:01:15.269Z,973.99
2019-06-10T03:02:13.515Z,973.99
2019-06-10T03:03:14.950Z,974.00
2019-06-10T03:04:13.739Z,973.99
2019-06-10T03:05:14.358Z,973.98
2019-06-10T03:06:14.420Z,974.01
2019-06-10T03:07:13.731Z,974.00
2019-06-10T03:08:13.242Z,973.99
2019-06-10T03:09:14.160Z,974.01
2019-06-10T03:10:13.720Z,973.99
2019-06-10T03:11:14.181Z,973.98
2019-06-10T03:12:13.053Z,973.96
2019-06-10T03:13:13.019Z,973.98
2019-06-10T03:14:13.152Z,974.00
2019-06-10T03:15:13.025Z,974.01
2019-06-10T03:16:13.168Z,974.08
2019-06-10T03:17:13.052Z,974.11
2019-06-10T03:18:13.024Z,974.14
2019-06-10T03:19:13.420Z,974.21
2019-06-10T03:20:13.036Z,974.21
2019-06-10T03:21:13.029Z,974.19
2019-06-10T03:22:13.155Z,974.13
2019-06-10T03:23:13.116Z,974.14
2019-06-10T03:24:13.287Z,974.12
2019-06-10T03:25:13.263Z,974.21
2019-06-10T03:26:13.030Z,974.18
2019-06-10T03:27:13.060Z,974.12
2019-06-10T03:28:13.030Z,974.10
2019-06-10T03:29:13.111Z,974.05
2019-06-10T03:30:19.757Z,973.92
2019-06-10T03:31:15.513Z,973.82
2019-06-10T03:32:15.233Z,973.79
2019-06-10T03:33:13.834Z,973.75
2019-06-10T03:34:14.903Z,973.67
2019-06-10T03:35:13.397Z,973.71
2019-06-10T03:36:13.035Z,973.71
2019-06-10T03:37:13.069Z,973.72
2019-06-10T03:38:13.042Z,973.76
2019-06-10T03:39:13.404Z,973.73
2019-06-10T03:40:13.196Z,973.75
2019-06-10T03:41:13.042Z,973.81
2019-06-10T03:42:13.097Z,973.86
2019-06-10T03:43:13.039Z,973.88
2019-06-10T03:44:13.342Z,973.92
2019-06-10T03:45:13.042Z,973.95
2019-06-10T03:46:13.549Z,974.00
2019-06-10T03:47:13.072Z,974.08
2019-06-10T03:48:13.141Z,974.11
2019-06-10T03:49:13.047Z,974.13
2019-06-10T03:50:13.356Z,974.13
2019-06-10T03:51:13.044Z,974.11
2019-06-10T03:52:13.092Z,974.14
2019-06-10T03:53:13.081Z,974.17
2019-06-10T03:54:13.269Z,974.14
2019-06-10T03:55:13.049Z,974.14
2019-06-10T03:56:13.058Z,974.13
2019-06-10T03:57:13.081Z,974.06
2019-06-10T03:58:13.062Z,974.01
2019-06-10T03:59:13.051Z,973.98
2019-06-10T04:00:13.987Z,973.94
2019-06-10T04:01:13.053Z,973.94
2019-06-10T04:02:13.081Z,973.93
2019-06-10T04:03:13.060Z,973.96
2019-06-10T04:04:13.286Z,973.92
2019-06-10T04:05:13.428Z,973.91
2019-06-10T04:06:13.256Z,973.89
2019-06-10T04:07:14.243Z,973.85
2019-06-10T04:08:13.073Z,973.81
2019-06-10T04:09:13.071Z,973.78
2019-06-10T04:10:13.066Z,973.79
2019-06-10T04:11:13.066Z,973.78
2019-06-10T04:12:13.099Z,973.81
2019-06-10T04:13:13.297Z,973.80
2019-06-10T04:14:13.229Z,973.86
2019-06-10T04:15:13.110Z,973.87
2019-06-10T04:16:13.294Z,973.86
2019-06-10T04:17:13.130Z,973.86
2019-06-10T04:18:13.105Z,973.87
2019-06-10T04:19:13.326Z,973.86
2019-06-10T04:20:15.550Z,973.86
2019-06-10T04:21:13.159Z,973.87
2019-06-10T04:22:13.113Z,973.82
2019-06-10T04:23:13.111Z,973.82
2019-06-10T04:24:13.092Z,973.84
2019-06-10T04:25:13.083Z,973.84
2019-06-10T04:26:13.083Z,973.84
2019-06-10T04:27:13.086Z,973.87
2019-06-10T04:28:13.118Z,973.88
2019-06-10T04:29:13.154Z,973.91
2019-06-10T04:30:15.832Z,973.97
2019-06-10T04:31:13.373Z,974.01
2019-06-10T04:32:13.095Z,974.04
2019-06-10T04:33:13.100Z,974.04
2019-06-10T04:34:13.131Z,974.10
2019-06-10T04:35:13.105Z,974.12
2019-06-10T04:36:13.579Z,974.14
2019-06-10T04:37:13.108Z,974.15
2019-06-10T04:38:13.238Z,974.17
2019-06-10T04:39:13.109Z,974.17
2019-06-10T04:40:13.458Z,974.18
2019-06-10T04:41:13.112Z,974.17
2019-06-10T04:42:13.117Z,974.18
2019-06-10T04:43:13.117Z,974.18
2019-06-10T04:44:13.345Z,974.12
2019-06-10T04:45:13.129Z,974.12
2019-06-10T04:46:13.119Z,974.12
2019-06-10T04:47:13.122Z,974.09
2019-06-10T04:48:13.134Z,974.10
2019-06-10T04:49:13.362Z,974.04
2019-06-10T04:50:24.707Z,974.02
2019-06-10T04:51:13.217Z,973.97
2019-06-10T04:52:13.132Z,973.96
2019-06-10T04:53:13.135Z,973.97
2019-06-10T04:54:13.460Z,973.91
2019-06-10T04:55:13.137Z,973.90
2019-06-10T04:56:13.145Z,973.91
2019-06-10T04:57:13.144Z,973.90
2019-06-10T04:58:13.144Z,973.86
2019-06-10T04:59:13.211Z,973.87
2019-06-10T05:00:14.768Z,973.87
2019-06-10T05:01:13.158Z,973.89
2019-06-10T05:02:13.155Z,973.93
2019-06-10T05:03:13.145Z,973.90
2019-06-10T05:04:13.185Z,973.92
2019-06-10T05:05:13.328Z,973.92
2019-06-10T05:06:13.164Z,973.90
2019-06-10T05:07:13.161Z,973.91
2019-06-10T05:08:13.261Z,973.85
2019-06-10T05:09:13.195Z,973.85
2019-06-10T05:10:13.169Z,973.81
2019-06-10T05:11:13.170Z,973.79
2019-06-10T05:12:13.176Z,973.76
2019-06-10T05:13:13.173Z,973.76
2019-06-10T05:14:13.475Z,973.77
2019-06-10T05:15:13.187Z,973.78
2019-06-10T05:16:13.183Z,973.77
2019-06-10T05:17:13.200Z,973.65
2019-06-10T05:18:13.213Z,973.60
2019-06-10T05:19:13.223Z,973.64
2019-06-10T05:20:13.190Z,973.68
2019-06-10T05:21:13.329Z,973.69
2019-06-10T05:22:13.202Z,973.75
2019-06-10T05:23:13.200Z,973.79
2019-06-10T05:24:13.230Z,973.80
2019-06-10T05:25:13.205Z,973.81
2019-06-10T05:26:13.495Z,973.80
2019-06-10T05:27:13.211Z,973.81
2019-06-10T05:28:13.210Z,973.81
2019-06-10T05:29:13.247Z,973.79
2019-06-10T05:30:13.218Z,973.79
2019-06-10T05:31:13.257Z,973.85
2019-06-10T05:32:13.227Z,973.91
2019-06-10T05:33:13.535Z,973.93
2019-06-10T05:34:13.337Z,973.96
2019-06-10T05:35:13.240Z,974.03
2019-06-10T05:36:13.441Z,974.08
2019-06-10T05:37:13.244Z,974.07
2019-06-10T05:38:13.246Z,974.11
2019-06-10T05:39:13.274Z,974.12
2019-06-10T05:40:13.249Z,974.16
2019-06-10T05:41:13.542Z,974.13
2019-06-10T05:42:13.277Z,974.10
2019-06-10T05:43:13.258Z,974.11
2019-06-10T05:44:13.631Z,974.12
2019-06-10T05:45:13.295Z,974.12
2019-06-10T05:46:13.572Z,974.12
2019-06-10T05:47:13.798Z,974.11
2019-06-10T05:48:16.622Z,974.08
2019-06-10T05:49:13.276Z,974.05
2019-06-10T05:50:13.304Z,974.10
2019-06-10T05:51:13.286Z,974.04
2019-06-10T05:52:13.287Z,974.06
2019-06-10T05:53:13.308Z,974.03
2019-06-10T05:54:13.333Z,974.03
2019-06-10T05:55:13.292Z,974.04
2019-06-10T05:56:13.300Z,974.04
2019-06-10T05:57:13.296Z,974.08
2019-06-10T05:58:13.305Z,974.04
2019-06-10T05:59:13.327Z,974.06
2019-06-10T06:00:14.980Z,974.03
2019-06-10T06:01:13.453Z,974.00
2019-06-10T06:02:13.323Z,974.04
2019-06-10T06:03:13.321Z,974.01
2019-06-10T06:04:13.355Z,973.98
2019-06-10T06:05:14.301Z,973.98
2019-06-10T06:06:13.331Z,974.01
2019-06-10T06:07:13.332Z,974.03
2019-06-10T06:08:13.336Z,974.05
2019-06-10T06:09:13.375Z,974.01
2019-06-10T06:10:13.347Z,973.99
2019-06-10T06:11:13.347Z,974.03
2019-06-10T06:12:14.265Z,973.99
2019-06-10T06:13:13.356Z,974.00
2019-06-10T06:14:13.441Z,974.00
2019-06-10T06:15:13.363Z,974.05
2019-06-10T06:16:14.304Z,974.09
2019-06-10T06:17:16.675Z,974.09
2019-06-10T06:18:14.136Z,974.11
2019-06-10T06:19:13.400Z,974.12
2019-06-10T06:20:13.507Z,974.13
2019-06-10T06:21:25.403Z,974.13
2019-06-10T06:22:13.416Z,974.11
2019-06-10T06:23:13.386Z,974.11
2019-06-10T06:24:13.390Z,974.13
2019-06-10T06:25:15.061Z,974.04
2019-06-10T06:26:16.367Z,974.03
2019-06-10T06:27:13.396Z,974.12
2019-06-10T06:28:15.939Z,974.06
2019-06-10T06:29:13.410Z,974.06
2019-06-10T06:30:18.540Z,974.07
2019-06-10T06:31:13.417Z,974.07
2019-06-10T06:32:13.419Z,974.04
2019-06-10T06:33:13.876Z,974.04
2019-06-10T06:34:13.959Z,974.05
2019-06-10T06:35:13.460Z,974.08
2019-06-10T06:36:13.639Z,974.07
2019-06-10T06:37:13.436Z,974.13
2019-06-10T06:38:13.441Z,974.20
2019-06-10T06:39:13.445Z,974.20
2019-06-10T06:40:13.513Z,974.22
2019-06-10T06:41:14.309Z,974.23
2019-06-10T06:42:13.457Z,974.19
2019-06-10T06:43:13.457Z,974.19
2019-06-10T06:44:13.461Z,974.22
2019-06-10T06:45:13.497Z,974.22
2019-06-10T06:46:13.472Z,974.22
2019-06-10T06:47:14.310Z,974.28
2019-06-10T06:48:13.478Z,974.22
2019-06-10T06:49:13.515Z,974.28
2019-06-10T06:50:14.311Z,974.26
2019-06-10T06:51:13.488Z,974.21
2019-06-10T06:52:13.525Z,974.21
2019-06-10T06:53:25.703Z,974.18
2019-06-10T06:54:13.509Z,974.12
2019-06-10T06:55:13.552Z,974.03
2019-06-10T06:56:13.518Z,974.09
2019-06-10T06:57:13.526Z,974.08
2019-06-10T06:58:13.528Z,974.06
2019-06-10T06:59:14.311Z,974.23
2019-06-10T07:00:37.237Z,974.19
2019-06-10T07:01:14.708Z,974.18
2019-06-10T07:02:13.551Z,974.19
2019-06-10T07:03:13.559Z,974.16
2019-06-10T07:04:13.563Z,974.17
2019-06-10T07:05:13.612Z,974.15
2019-06-10T07:06:13.574Z,973.99
2019-06-10T07:07:13.580Z,974.12
2019-06-10T07:08:13.584Z,973.93
2019-06-10T07:09:13.859Z,973.96
2019-06-10T07:10:13.640Z,974.02
2019-06-10T07:11:13.602Z,974.08
2019-06-10T07:12:13.612Z,974.10
2019-06-10T07:13:13.648Z,974.12
2019-06-10T07:14:13.634Z,974.03
2019-06-10T07:15:13.624Z,974.13
2019-06-10T07:16:13.694Z,974.03
2019-06-10T07:17:13.649Z,974.07
2019-06-10T07:18:13.651Z,973.97
2019-06-10T07:19:13.653Z,973.94
2019-06-10T07:20:13.666Z,973.98
2019-06-10T07:21:13.698Z,973.95
2019-06-10T07:22:16.321Z,973.93
2019-06-10T07:23:13.697Z,973.85
2019-06-10T07:24:13.692Z,973.77
2019-06-10T07:25:13.715Z,973.75
2019-06-10T07:26:13.735Z,973.67
2019-06-10T07:27:13.713Z,973.60
2019-06-10T07:28:13.723Z,973.57
2019-06-10T07:29:13.730Z,973.68
2019-06-10T07:30:15.223Z,973.83
2019-06-10T07:31:23.041Z,973.95
2019-06-10T07:32:13.759Z,974.03
2019-06-10T07:33:13.755Z,974.02
2019-06-10T07:34:13.766Z,974.14
2019-06-10T07:35:13.778Z,974.15
2019-06-10T07:36:13.807Z,974.18
2019-06-10T07:37:13.799Z,974.24
2019-06-10T07:38:13.800Z,974.20
2019-06-10T07:39:13.814Z,974.14
2019-06-10T07:40:13.808Z,974.11
2019-06-10T07:41:13.848Z,974.14
2019-06-10T07:42:13.827Z,974.07
2019-06-10T07:43:13.839Z,974.02
2019-06-10T07:44:13.845Z,974.03
2019-06-10T07:45:13.846Z,974.02
2019-06-10T07:46:13.888Z,973.97
2019-06-10T07:47:13.874Z,973.94
2019-06-10T07:48:13.875Z,974.01
2019-06-10T07:49:13.880Z,974.15
2019-06-10T07:50:13.888Z,974.27
2019-06-10T07:51:13.928Z,974.44
2019-06-10T07:52:19.363Z,974.57
2019-06-10T07:53:13.944Z,974.65
2019-06-10T07:54:13.928Z,974.62
2019-06-10T07:55:13.932Z,974.65
2019-06-10T07:56:14.115Z,974.74
2019-06-10T07:57:13.986Z,974.76
2019-06-10T07:58:13.974Z,974.73
2019-06-10T07:59:13.978Z,974.87
2019-06-10T08:00:14.836Z,974.83
2019-06-10T08:01:13.994Z,974.83
2019-06-10T08:02:14.043Z,974.80
2019-06-10T08:03:14.030Z,974.76
2019-06-10T08:04:14.027Z,974.71
2019-06-10T08:05:14.044Z,974.69
2019-06-10T08:06:14.053Z,974.71
2019-06-10T08:07:14.087Z,974.73
2019-06-10T08:08:14.067Z,974.73
2019-06-10T08:09:14.079Z,974.78
2019-06-10T08:10:14.092Z,974.77
2019-06-10T08:11:14.273Z,974.75
2019-06-10T08:12:14.139Z,974.73
2019-06-10T08:13:14.122Z,974.71
2019-06-10T08:14:14.138Z,974.74
2019-06-10T08:15:14.145Z,974.70
2019-06-10T08:16:14.834Z,974.71
2019-06-10T08:17:14.199Z,974.69
2019-06-10T08:18:14.181Z,974.62
2019-06-10T08:19:29.384Z,974.65
2019-06-10T08:20:14.202Z,974.69
2019-06-10T08:21:14.220Z,974.70
2019-06-10T08:22:29.985Z,974.71
2019-06-10T08:23:14.234Z,974.76
2019-06-10T08:24:14.242Z,974.80
2019-06-10T08:25:14.252Z,974.80
2019-06-10T08:26:14.267Z,974.83
2019-06-10T08:27:14.303Z,974.83
2019-06-10T08:28:14.293Z,974.82
2019-06-10T08:29:14.301Z,974.80
2019-06-10T08:30:22.499Z,974.80
2019-06-10T08:31:14.343Z,974.79
2019-06-10T08:32:14.325Z,974.79
2019-06-10T08:33:14.341Z,974.79
2019-06-10T08:34:14.350Z,974.78
2019-06-10T08:35:14.366Z,974.80
2019-06-10T08:36:14.530Z,974.74
2019-06-10T08:37:14.384Z,974.77
2019-06-10T08:38:14.392Z,974.80
2019-06-10T08:39:15.927Z,974.80
2019-06-10T08:40:14.426Z,974.76
2019-06-10T08:41:14.499Z,974.78
2019-06-10T08:42:14.437Z,974.74
2019-06-10T08:43:14.448Z,974.74
2019-06-10T08:44:14.456Z,974.78
2019-06-10T08:45:14.463Z,974.80
2019-06-10T08:46:14.516Z,974.74
2019-06-10T08:47:15.349Z,974.73
2019-06-10T08:48:14.501Z,974.75
2019-06-10T08:49:14.509Z,974.73
2019-06-10T08:50:14.525Z,974.73
2019-06-10T08:51:14.564Z,974.67
2019-06-10T08:52:14.542Z,974.70
2019-06-10T08:53:17.994Z,974.72
2019-06-10T08:54:14.593Z,974.67
2019-06-10T08:55:17.193Z,974.67
2019-06-10T08:56:15.350Z,974.68
2019-06-10T08:57:14.624Z,974.65
2019-06-10T08:58:14.615Z,974.69
2019-06-10T08:59:14.621Z,974.74
2019-06-10T09:00:16.257Z,974.74
2019-06-10T09:01:14.670Z,974.81
2019-06-10T09:02:14.664Z,974.79
2019-06-10T09:03:14.671Z,974.77
2019-06-10T09:04:14.705Z,974.75
2019-06-10T09:05:14.688Z,974.80
2019-06-10T09:06:14.698Z,974.78
2019-06-10T09:07:14.750Z,974.79
2019-06-10T09:08:14.730Z,974.79
2019-06-10T09:09:14.744Z,974.75
2019-06-10T09:10:14.747Z,974.75
2019-06-10T09:11:14.785Z,974.75
2019-06-10T09:12:28.848Z,974.75
2019-06-10T09:13:14.773Z,974.75
2019-06-10T09:14:14.794Z,974.76
2019-06-10T09:15:14.803Z,974.74
2019-06-10T09:16:19.305Z,974.75
2019-06-10T09:17:14.824Z,974.77
2019-06-10T09:18:18.989Z,974.74
2019-06-10T09:19:14.860Z,974.77
2019-06-10T09:20:14.887Z,974.75
2019-06-10T09:21:14.907Z,974.79
2019-06-10T09:22:15.863Z,974.79
2019-06-10T09:23:21.836Z,974.81
2019-06-10T09:24:15.329Z,974.83
2019-06-10T09:25:14.958Z,974.85
2019-06-10T09:26:14.929Z,974.85
2019-06-10T09:27:14.954Z,974.86
2019-06-10T09:28:14.952Z,974.86
2019-06-10T09:29:14.971Z,974.83
2019-06-10T09:30:15.002Z,974.84
2019-06-10T09:31:15.021Z,974.82
2019-06-10T09:32:15.006Z,974.80
2019-06-10T09:33:15.023Z,974.83
2019-06-10T09:34:15.028Z,974.87
2019-06-10T09:35:15.071Z,974.86
2019-06-10T09:36:15.083Z,974.85
2019-06-10T09:37:15.073Z,974.81
2019-06-10T09:38:15.087Z,974.83
2019-06-10T09:39:15.103Z,974.82
2019-06-10T09:40:15.104Z,974.85
2019-06-10T09:41:15.148Z,974.86
2019-06-10T09:42:15.167Z,974.86
2019-06-10T09:43:15.145Z,974.85
2019-06-10T09:44:15.874Z,974.83
2019-06-10T09:45:15.168Z,974.80
2019-06-10T09:46:15.210Z,974.78
2019-06-10T09:47:15.197Z,974.79
2019-06-10T09:48:15.202Z,974.79
2019-06-10T09:49:15.217Z,974.77
2019-06-10T09:50:15.231Z,974.76
2019-06-10T09:51:15.282Z,974.82
2019-06-10T09:52:15.256Z,974.82
2019-06-10T09:53:28.986Z,974.82
2019-06-10T09:54:15.279Z,974.80
2019-06-10T09:55:15.291Z,974.83
2019-06-10T09:56:15.344Z,974.78
2019-06-10T09:57:15.315Z,974.76
2019-06-10T09:58:15.326Z,974.80
2019-06-10T09:59:15.335Z,974.76
2019-06-10T10:00:15.352Z,974.76
2019-06-10T10:01:15.392Z,974.77
2019-06-10T10:02:15.369Z,974.79
2019-06-10T10:03:15.377Z,974.78
2019-06-10T10:04:15.394Z,974.81
2019-06-10T10:05:15.408Z,974.79
2019-06-10T10:06:16.154Z,974.78
2019-06-10T10:07:15.431Z,974.78
2019-06-10T10:08:15.439Z,974.77
2019-06-10T10:09:15.456Z,974.76
2019-06-10T10:10:15.463Z,974.72
2019-06-10T10:11:15.500Z,974.72
2019-06-10T10:12:15.494Z,974.73
2019-06-10T10:13:15.507Z,974.75
2019-06-10T10:14:16.140Z,974.70
2019-06-10T10:15:26.591Z,974.65
2019-06-10T10:16:15.559Z,974.63
2019-06-10T10:17:15.546Z,974.60
2019-06-10T10:18:15.558Z,974.63
2019-06-10T10:19:16.385Z,974.65
2019-06-10T10:20:15.576Z,974.63
2019-06-10T10:21:15.628Z,974.63
2019-06-10T10:22:15.667Z,974.64
2019-06-10T10:23:15.614Z,974.57
2019-06-10T10:24:15.625Z,974.62
2019-06-10T10:25:15.638Z,974.57
2019-06-10T10:26:15.681Z,974.54
2019-06-10T10:27:15.666Z,974.53
2019-06-10T10:28:15.671Z,974.53
2019-06-10T10:29:15.686Z,974.53
2019-06-10T10:30:15.697Z,974.48
2019-06-10T10:31:15.740Z,974.43
2019-06-10T10:32:15.727Z,974.43
2019-06-10T10:33:15.743Z,974.44
2019-06-10T10:34:15.757Z,974.43
2019-06-10T10:35:15.769Z,974.45
2019-06-10T10:36:15.813Z,974.40
2019-06-10T10:37:15.831Z,974.39
2019-06-10T10:38:15.812Z,974.44
2019-06-10T10:39:15.821Z,974.40
2019-06-10T10:40:15.834Z,974.41
2019-06-10T10:41:15.869Z,974.39
2019-06-10T10:42:15.890Z,974.38
2019-06-10T10:43:25.322Z,974.40
2019-06-10T10:44:15.882Z,974.39
2019-06-10T10:45:15.898Z,974.41
2019-06-10T10:46:15.942Z,974.42
2019-06-10T10:47:15.952Z,974.43
2019-06-10T10:48:15.939Z,974.42
2019-06-10T10:49:15.952Z,974.44
2019-06-10T10:50:15.969Z,974.43
2019-06-10T10:51:16.012Z,974.43
2019-06-10T10:52:16.024Z,974.44
2019-06-10T10:53:16.014Z,974.37
2019-06-10T10:54:25.548Z,974.30
2019-06-10T10:55:16.042Z,974.25
2019-06-10T10:56:16.086Z,974.24
2019-06-10T10:57:16.249Z,974.24
2019-06-10T10:58:16.088Z,974.22
2019-06-10T10:59:16.107Z,974.24
2019-06-10T11:00:16.115Z,974.21
2019-06-10T11:01:16.377Z,974.18
2019-06-10T11:02:16.177Z,974.17
2019-06-10T11:03:16.159Z,974.15
2019-06-10T11:04:16.180Z,974.17
2019-06-10T11:05:16.193Z,974.14
2019-06-10T11:06:16.213Z,974.13
2019-06-10T11:07:16.252Z,974.13
2019-06-10T11:08:16.245Z,974.13
2019-06-10T11:09:16.253Z,974.09
2019-06-10T11:10:16.269Z,974.09
2019-06-10T11:11:16.287Z,974.07
2019-06-10T11:12:16.329Z,974.06
2019-06-10T11:13:16.315Z,974.04
2019-06-10T11:14:16.336Z,974.07
2019-06-10T11:15:16.350Z,974.03
2019-06-10T11:16:16.358Z,974.03
2019-06-10T11:17:16.408Z,974.03
2019-06-10T11:18:16.390Z,974.05
2019-06-10T11:19:16.405Z,974.04
2019-06-10T11:20:16.419Z,974.06
2019-06-10T11:21:16.433Z,974.00
2019-06-10T11:22:16.476Z,974.01
2019-06-10T11:23:16.460Z,974.01
2019-06-10T11:24:32.717Z,973.98
2019-06-10T11:25:16.492Z,973.95
2019-06-10T11:26:16.505Z,973.91
2019-06-10T11:27:16.550Z,973.90
2019-06-10T11:28:16.538Z,973.88
2019-06-10T11:29:16.550Z,973.83
2019-06-10T11:30:17.415Z,973.79
2019-06-10T11:31:16.577Z,973.76
2019-06-10T11:32:16.618Z,973.74
2019-06-10T11:33:16.603Z,973.71
2019-06-10T11:34:19.684Z,973.68
2019-06-10T11:35:16.635Z,973.64
2019-06-10T11:36:16.648Z,973.60
2019-06-10T11:37:16.694Z,973.63
2019-06-10T11:38:16.673Z,973.58
2019-06-10T11:39:16.706Z,973.53
2019-06-10T11:40:16.702Z,973.57
2019-06-10T11:41:16.728Z,973.53
2019-06-10T11:42:16.753Z,973.55
2019-06-10T11:43:16.739Z,973.54
2019-06-10T11:44:16.757Z,973.48
2019-06-10T11:45:16.782Z,973.46
2019-06-10T11:46:16.783Z,973.50
2019-06-10T11:47:16.822Z,973.51
2019-06-10T11:48:16.807Z,973.54
2019-06-10T11:49:16.835Z,973.53
2019-06-10T11:50:17.495Z,973.55
2019-06-10T11:51:16.847Z,973.58
2019-06-10T11:52:16.891Z,973.58
2019-06-10T11:53:16.876Z,973.57
2019-06-10T11:54:16.906Z,973.56
2019-06-10T11:55:19.081Z,973.56
2019-06-10T11:56:16.918Z,973.54
2019-06-10T11:57:16.962Z,973.54
2019-06-10T11:58:16.955Z,973.52
2019-06-10T11:59:16.962Z,973.50
2019-06-10T12:00:17.453Z,973.42
2019-06-10T12:01:16.990Z,973.36
2019-06-10T12:02:17.036Z,973.40
2019-06-10T12:03:17.021Z,973.37
2019-06-10T12:04:17.034Z,973.40
2019-06-10T12:05:20.270Z,973.36
2019-06-10T12:06:17.924Z,973.35
2019-06-10T12:07:17.111Z,973.34
2019-06-10T12:08:17.170Z,973.32
2019-06-10T12:09:17.113Z,973.27
2019-06-10T12:10:17.136Z,973.28
2019-06-10T12:11:17.141Z,973.23
2019-06-10T12:12:17.158Z,973.16
2019-06-10T12:13:17.215Z,973.16
2019-06-10T12:14:17.194Z,973.05
2019-06-10T12:15:17.203Z,973.01
2019-06-10T12:17:35.040Z,972.87
2019-06-10T12:18:17.291Z,972.87
2019-06-10T12:19:17.267Z,972.92
2019-06-10T12:20:17.674Z,972.95
2019-06-10T12:21:17.295Z,972.99
2019-06-10T12:22:17.939Z,973.01
2019-06-10T12:23:17.356Z,973.03
2019-06-10T12:24:17.339Z,973.02
2019-06-10T12:25:31.548Z,973.01
2019-06-10T12:26:17.375Z,973.00
2019-06-10T12:27:17.385Z,973.02
2019-06-10T12:28:17.429Z,973.03
2019-06-10T12:29:17.937Z,972.96